Time;durP1;ratioP1;P1;durP2;ratioP2;P2;SDS_P1;SDS_P2;PMS_P1;PMS_P2;Temp;Humidity;BMP_temperature;BMP_pressure;BME280_temperature;BME280_humidity;BME280_pressure;Samples;Min_cycle;Max_cycle;Signal;HPM_P1;HPM_P2
2023/05/10 00:00:15;;;;;;;7.47;5.72;;;;;;;12.42;61.20;100723.44;4998316;28;20061;-71
2023/05/10 00:02:42;;;;;;;6.88;5.45;;;;;;;12.40;61.23;100725.28;4999832;28;20044;-71
2023/05/10 00:05:08;;;;;;;10.07;6.43;;;;;;;12.36;61.58;100721.97;4999047;28;20033;-71
2023/05/10 00:07:33;;;;;;;6.60;5.65;;;;;;;12.36;61.33;100718.53;5018914;28;20029;-70
2023/05/10 00:09:59;;;;;;;8.35;6.00;;;;;;;12.39;61.11;100713.97;5017458;28;20098;-69
2023/05/10 00:12:24;;;;;;;8.05;5.63;;;;;;;12.39;61.11;100713.13;5017481;28;20037;-68
2023/05/10 00:14:50;;;;;;;7.55;6.25;;;;;;;12.29;61.26;100713.56;5016662;28;20827;-69
2023/05/10 00:17:15;;;;;;;7.95;5.57;;;;;;;12.32;61.22;100711.72;5016526;28;20032;-68
2023/05/10 00:19:41;;;;;;;6.80;4.97;;;;;;;12.27;61.14;100699.69;4999359;28;20911;-68
2023/05/10 00:22:06;;;;;;;7.32;5.22;;;;;;;12.29;61.38;100702.25;4981924;28;20232;-67
2023/05/10 00:24:32;;;;;;;7.32;5.53;;;;;;;12.29;61.09;100697.84;4999729;28;20409;-68
2023/05/10 00:26:57;;;;;;;7.68;5.57;;;;;;;12.34;61.14;100683.69;4984957;28;20060;-68
2023/05/10 00:29:23;;;;;;;9.05;6.53;;;;;;;12.34;60.95;100687.13;5030564;28;20145;-67
2023/05/10 00:31:48;;;;;;;8.07;6.05;;;;;;;12.33;60.99;100684.59;5015689;28;20037;-67
2023/05/10 00:34:14;;;;;;;8.10;6.40;;;;;;;12.32;60.94;100683.75;5015887;28;20102;-67
2023/05/10 00:36:40;;;;;;;8.00;6.03;;;;;;;12.18;61.43;100679.22;5001409;28;20033;-68
2023/05/10 00:39:06;;;;;;;9.55;6.47;;;;;;;12.35;61.12;100677.50;5016937;28;20041;-69
2023/05/10 00:41:32;;;;;;;7.40;6.13;;;;;;;12.37;61.05;100679.13;5018082;28;20040;-69
2023/05/10 00:44:00;;;;;;;7.43;5.85;;;;;;;12.37;60.96;100679.13;5016927;28;20044;-68
2023/05/10 00:46:26;;;;;;;9.32;6.45;;;;;;;12.39;61.02;100674.63;5017242;28;20375;-67
2023/05/10 00:48:52;;;;;;;9.65;6.68;;;;;;;12.37;61.08;100673.03;5020216;28;20044;-68
2023/05/10 00:51:18;;;;;;;9.20;7.47;;;;;;;12.38;61.06;100672.09;5015798;28;20035;-67
2023/05/10 00:53:45;;;;;;;8.85;7.00;;;;;;;12.36;60.96;100666.94;5011743;28;20441;-68
2023/05/10 00:56:11;;;;;;;9.70;7.55;;;;;;;12.33;60.89;100667.09;5005102;28;20331;-68
2023/05/10 00:58:36;;;;;;;8.13;7.30;;;;;;;12.34;61.05;100660.94;5000668;28;20400;-68
2023/05/10 01:01:02;;;;;;;10.35;6.85;;;;;;;12.37;61.10;100665.16;5023070;28;20037;-67
2023/05/10 01:03:27;;;;;;;12.20;7.43;;;;;;;12.31;61.02;100663.69;5019003;28;20507;-68
2023/05/10 01:05:53;;;;;;;13.02;7.95;;;;;;;12.31;61.24;100650.59;5022158;28;20065;-68
2023/05/10 01:08:19;;;;;;;10.35;8.00;;;;;;;12.26;61.17;100650.81;5004365;28;20072;-68
2023/05/10 01:10:45;;;;;;;11.85;7.97;;;;;;;12.17;61.41;100655.69;5020306;28;20144;-68
2023/05/10 01:13:12;;;;;;;12.25;9.15;;;;;;;12.14;61.89;100651.47;5018516;28;20056;-67
2023/05/10 01:15:38;;;;;;;15.20;9.00;;;;;;;12.12;62.14;100653.31;5019511;28;20696;-68
2023/05/10 01:18:04;;;;;;;13.82;9.10;;;;;;;12.20;61.89;100652.91;5020260;28;20064;-68
2023/05/10 01:20:39;;;;;;;12.60;8.73;;;;;;;12.14;61.86;100661.09;5002504;28;20128;-68
2023/05/10 01:23:17;;;;;;;13.40;9.40;;;;;;;12.10;62.27;100654.31;5019948;28;20037;-67
2023/05/10 01:26:20;;;;;;;11.70;8.00;;;;;;;12.31;61.95;100652.38;5030441;28;20028;-69
2023/05/10 01:29:06;;;;;;;10.57;8.23;;;;;;;12.38;61.46;100653.75;5033257;28;20077;-74
2023/05/10 01:31:56;;;;;;;9.65;7.47;;;;;;;12.37;60.91;100657.31;5020502;28;20037;-74
2023/05/10 01:34:34;;;;;;;11.73;8.48;;;;;;;12.35;61.02;100652.13;4987948;28;20285;-75
2023/05/10 01:37:10;;;;;;;9.45;7.20;;;;;;;12.35;60.93;100654.75;5003468;28;20168;-75
2023/05/10 01:40:02;;;;;;;10.73;7.18;;;;;;;12.34;61.21;100657.47;5012811;28;20442;-70
2023/05/10 01:42:38;;;;;;;9.07;7.55;;;;;;;12.31;60.94;100657.59;5019951;28;20084;-71
2023/05/10 01:45:18;;;;;;;11.93;7.38;;;;;;;12.38;61.33;100656.38;5008100;28;20060;-71
2023/05/10 01:47:50;;;;;;;15.05;7.18;;;;;;;12.45;61.00;100650.75;4998549;28;20541;-71
2023/05/10 01:50:19;;;;;;;7.43;5.88;;;;;;;12.43;61.27;100657.00;4991406;28;20037;-71
2023/05/10 01:52:54;;;;;;;7.10;5.55;;;;;;;12.46;60.83;100651.59;5003097;28;20036;-69
2023/05/10 01:55:22;;;;;;;9.23;6.18;;;;;;;12.42;60.79;100648.28;4988830;28;20127;-71
2023/05/10 01:57:58;;;;;;;6.50;4.55;;;;;;;12.39;60.81;100647.59;4991161;28;20037;-72
2023/05/10 02:00:24;;;;;;;6.28;4.45;;;;;;;12.35;60.56;100660.00;5035744;28;20029;-76
2023/05/10 02:02:52;;;;;;;7.03;5.07;;;;;;;12.18;61.11;100660.00;5017072;28;20039;-75
2023/05/10 02:05:20;;;;;;;6.75;4.22;;;;;;;12.09;61.39;100666.56;5035143;28;20059;-70
2023/05/10 02:07:47;;;;;;;7.72;4.50;;;;;;;12.15;61.27;100679.34;5010844;28;20213;-72
2023/05/10 02:10:14;;;;;;;6.93;4.40;;;;;;;12.18;60.88;100684.44;5020242;28;20411;-71
2023/05/10 02:12:42;;;;;;;5.93;4.55;;;;;;;12.03;61.76;100680.81;5018961;28;20951;-71
2023/05/10 02:15:10;;;;;;;7.15;4.95;;;;;;;12.05;61.23;100680.72;5002870;28;20095;-70
2023/05/10 02:17:37;;;;;;;6.88;4.80;;;;;;;11.97;61.78;100680.25;5019363;28;20144;-70
2023/05/10 02:20:06;;;;;;;7.03;4.40;;;;;;;12.06;61.58;100674.56;5017705;28;20111;-70
2023/05/10 02:22:33;;;;;;;5.63;3.58;;;;;;;11.82;61.55;100671.34;5012939;28;20037;-69
2023/05/10 02:25:00;;;;;;;4.35;2.90;;;;;;;12.00;61.40;100674.84;5003510;28;20029;-70
2023/05/10 02:27:28;;;;;;;4.28;2.55;;;;;;;11.97;61.19;100677.63;4997670;28;20033;-69
2023/05/10 02:29:54;;;;;;;3.15;2.35;;;;;;;11.95;61.48;100671.63;5000100;28;20041;-70
2023/05/10 02:32:22;;;;;;;4.72;2.83;;;;;;;11.98;61.25;100672.34;4979873;28;20619;-69
2023/05/10 02:34:51;;;;;;;2.85;1.98;;;;;;;12.11;61.26;100683.06;4999218;28;20067;-70
2023/05/10 02:37:19;;;;;;;3.50;2.22;;;;;;;12.19;60.99;100687.91;5000095;28;20056;-69
2023/05/10 02:39:48;;;;;;;4.88;3.00;;;;;;;12.04;61.01;100682.50;5018068;28;20051;-69
2023/05/10 02:42:17;;;;;;;6.38;3.80;;;;;;;12.16;60.61;100681.03;5020474;28;20029;-69
2023/05/10 02:44:45;;;;;;;6.10;3.65;;;;;;;12.16;60.74;100681.03;4972237;28;20041;-70
2023/05/10 02:47:10;;;;;;;5.25;3.95;;;;;;;12.14;60.94;100676.81;5021643;28;20063;-70
2023/05/10 02:49:36;;;;;;;6.43;4.15;;;;;;;12.12;60.85;100674.25;5001004;28;20068;-69
2023/05/10 02:52:06;;;;;;;6.53;4.82;;;;;;;12.16;60.73;100675.81;5002962;28;20137;-70
2023/05/10 02:54:38;;;;;;;7.68;4.75;;;;;;;12.14;60.76;100680.28;5007103;28;20037;-69
2023/05/10 02:57:04;;;;;;;;;;;;;;;12.04;60.79;100679.03;5022427;28;20847;-78
2023/05/10 02:59:32;;;;;;;8.27;4.70;;;;;;;12.03;60.80;100679.97;5020214;28;20030;-77
2023/05/10 03:02:00;;;;;;;8.25;4.68;;;;;;;11.94;60.93;100672.56;5021652;28;20254;-76
2023/05/10 03:04:25;;;;;;;6.43;4.20;;;;;;;11.83;60.61;100671.28;5013871;28;20209;-72
2023/05/10 03:06:54;;;;;;;8.77;5.53;;;;;;;11.77;60.90;100663.72;5018171;28;20131;-73
2023/05/10 03:09:20;;;;;;;9.18;5.00;;;;;;;11.70;61.08;100661.47;5019601;28;20055;-72
2023/05/10 03:12:12;;;;;;;7.28;4.72;;;;;;;11.71;60.85;100664.03;5018493;28;20120;-72
2023/05/10 03:15:07;;;;;;;7.30;4.30;;;;;;;11.70;60.92;100657.06;5017640;28;20041;-72
2023/05/10 03:17:47;;;;;;;8.63;5.13;;;;;;;11.61;60.99;100663.59;5018760;28;20205;-71
2023/05/10 03:20:37;;;;;;;8.40;5.45;;;;;;;11.64;60.67;100663.47;5009362;28;20079;-69
2023/05/10 03:23:10;;;;;;;7.00;4.57;;;;;;;11.63;61.02;100668.75;5010539;28;20066;-73
2023/05/10 03:25:37;;;;;;;7.95;4.95;;;;;;;11.66;60.78;100660.75;4995100;28;20447;-68
2023/05/10 03:28:05;;;;;;;7.82;5.43;;;;;;;11.62;60.76;100661.81;4984106;28;20057;-69
2023/05/10 03:30:33;;;;;;;7.68;4.85;;;;;;;11.50;61.20;100660.63;4998027;28;20068;-67
2023/05/10 03:33:04;;;;;;;8.23;4.78;;;;;;;11.63;60.94;100668.75;4982622;28;20132;-65
2023/05/10 03:35:30;;;;;;;8.55;5.00;;;;;;;11.67;60.83;100670.31;4997032;28;20038;-69
2023/05/10 03:37:56;;;;;;;8.27;4.47;;;;;;;11.64;60.74;100673.94;5000180;28;20355;-67
2023/05/10 03:40:22;;;;;;;7.90;4.43;;;;;;;11.66;60.66;100676.47;4997599;28;20044;-70
2023/05/10 03:42:48;;;;;;;8.32;5.15;;;;;;;11.71;60.78;100669.25;4998978;28;20044;-71
2023/05/10 03:45:14;;;;;;;8.57;4.32;;;;;;;11.76;60.84;100672.50;4999049;28;20673;-71
2023/05/10 03:47:40;;;;;;;7.82;4.70;;;;;;;11.85;60.75;100674.69;4999624;28;20025;-72
2023/05/10 03:50:06;;;;;;;8.10;5.35;;;;;;;11.88;60.62;100676.31;5014290;28;20025;-73
2023/05/10 03:52:33;;;;;;;9.13;5.40;;;;;;;11.90;60.74;100673.63;5000025;28;20612;-72
2023/05/10 03:54:58;;;;;;;7.53;5.22;;;;;;;11.96;60.62;100668.94;5003899;28;20087;-70
2023/05/10 03:57:24;;;;;;;13.02;6.40;;;;;;;11.88;60.47;100664.06;5016684;28;20792;-70
2023/05/10 03:59:49;;;;;;;7.25;4.60;;;;;;;11.93;60.52;100658.59;5017990;28;20577;-67
2023/05/10 04:02:16;;;;;;;9.30;5.38;;;;;;;11.91;60.19;100656.97;4999072;28;20036;-69
2023/05/10 04:04:41;;;;;;;9.82;6.13;;;;;;;11.80;60.32;100647.88;5013424;28;20524;-68
2023/05/10 04:07:07;;;;;;;11.65;6.72;;;;;;;11.80;60.18;100647.88;5000649;28;20549;-67
2023/05/10 04:09:33;;;;;;;10.77;6.47;;;;;;;11.62;60.70;100646.09;4980297;28;20049;-68
2023/05/10 04:12:00;;;;;;;9.95;5.75;;;;;;;11.64;60.87;100652.13;5000689;28;20044;-72
2023/05/10 04:14:26;;;;;;;11.05;5.72;;;;;;;11.68;60.71;100659.75;4998355;28;20049;-67
2023/05/10 04:16:51;;;;;;;8.95;5.05;;;;;;;11.71;60.19;100656.16;5000884;28;20030;-68
2023/05/10 04:19:17;;;;;;;11.50;6.22;;;;;;;11.59;60.65;100656.75;4986804;28;20511;-69
2023/05/10 04:21:42;;;;;;;10.55;6.15;;;;;;;11.69;60.90;100660.63;4989536;28;20207;-71
2023/05/10 04:24:07;;;;;;;10.75;5.97;;;;;;;11.55;60.93;100657.78;4996873;28;21102;-72
2023/05/10 04:26:33;;;;;;;5.97;4.60;;;;;;;11.15;61.45;100662.28;5002110;28;20451;-71
2023/05/10 04:28:58;;;;;;;7.13;4.47;;;;;;;11.34;61.32;100665.75;4999374;28;20462;-67
2023/05/10 04:31:24;;;;;;;6.15;3.28;;;;;;;11.48;61.08;100667.72;4993551;28;20067;-69
2023/05/10 04:33:49;;;;;;;7.75;4.40;;;;;;;11.44;60.67;100668.78;5000870;28;21016;-66
2023/05/10 04:36:15;;;;;;;6.05;4.03;;;;;;;11.22;61.17;100679.41;5000597;28;20062;-67
2023/05/10 04:38:40;;;;;;;6.57;4.13;;;;;;;11.34;61.06;100670.13;5002238;28;20068;-66
2023/05/10 04:41:07;;;;;;;8.32;5.20;;;;;;;10.94;61.73;100666.72;5003224;28;20057;-73
2023/05/10 04:43:33;;;;;;;5.82;4.45;;;;;;;11.21;61.14;100672.47;5009241;28;20104;-74
2023/05/10 04:45:59;;;;;;;6.45;4.60;;;;;;;11.14;61.45;100673.66;5026119;28;20017;-74
2023/05/10 04:48:24;;;;;;;5.78;4.00;;;;;;;11.31;60.67;100676.38;5021167;28;20509;-73
2023/05/10 04:50:49;;;;;;;8.70;5.55;;;;;;;11.16;60.74;100677.06;5027155;28;20091;-71
2023/05/10 04:53:15;;;;;;;6.72;4.20;;;;;;;11.35;60.71;100677.06;5020602;28;20048;-72
2023/05/10 04:55:40;;;;;;;7.15;5.28;;;;;;;11.16;60.84;100682.28;5014915;28;20033;-71
2023/05/10 04:58:06;;;;;;;8.50;5.18;;;;;;;10.98;61.51;100678.75;5020537;28;20041;-69
2023/05/10 05:00:32;;;;;;;8.32;4.97;;;;;;;11.02;61.16;100686.38;5020031;28;20045;-68
2023/05/10 05:02:58;;;;;;;8.65;5.25;;;;;;;10.63;61.73;100684.56;5021601;28;20110;-70
2023/05/10 05:05:23;;;;;;;9.52;5.85;;;;;;;10.64;61.69;100688.88;5020423;28;20033;-71
2023/05/10 05:07:50;;;;;;;9.00;5.65;;;;;;;10.63;61.35;100691.56;5022126;28;20052;-71
2023/05/10 05:10:16;;;;;;;8.02;5.32;;;;;;;10.63;60.92;100688.94;5022510;28;20037;-70
2023/05/10 05:12:41;;;;;;;9.40;4.72;;;;;;;10.80;60.90;100696.06;5018084;28;20114;-73
2023/05/10 05:15:09;;;;;;;8.70;5.53;;;;;;;10.49;61.22;100694.75;5019256;28;20550;-72
2023/05/10 05:17:35;;;;;;;8.98;5.47;;;;;;;10.86;60.84;100695.84;5018371;28;20041;-71
2023/05/10 05:20:01;;;;;;;8.68;5.20;;;;;;;10.94;60.53;100693.72;5018983;28;20302;-71
2023/05/10 05:22:27;;;;;;;9.18;6.10;;;;;;;10.92;60.64;100697.31;4998600;28;20087;-71
2023/05/10 05:24:54;;;;;;;9.75;5.85;;;;;;;11.02;60.34;100694.22;4996222;28;20045;-71
2023/05/10 05:27:23;;;;;;;8.27;5.38;;;;;;;11.03;60.20;100697.69;5000379;28;20739;-71
2023/05/10 05:29:53;;;;;;;11.63;6.20;;;;;;;11.22;59.91;100702.94;5015694;28;20041;-73
2023/05/10 05:32:24;;;;;;;7.55;5.35;;;;;;;11.36;59.90;100705.78;5015751;28;20044;-70
2023/05/10 05:34:51;;;;;;;9.23;5.88;;;;;;;10.93;60.26;100706.84;5017623;28;20096;-71
2023/05/10 05:37:18;;;;;;;9.18;5.93;;;;;;;11.01;59.91;100709.97;5022089;28;20505;-78
2023/05/10 05:39:44;;;;;;;8.93;6.30;;;;;;;10.68;60.50;100707.03;5010447;28;20108;-75
2023/05/10 05:42:11;;;;;;;12.02;6.78;;;;;;;10.91;60.10;100714.78;5023553;28;20317;-77
2023/05/10 05:44:37;;;;;;;11.45;6.65;;;;;;;10.79;60.57;100717.88;4996858;28;20080;-77
2023/05/10 05:47:03;;;;;;;12.27;7.35;;;;;;;10.87;60.23;100723.66;5005587;28;20296;-73
2023/05/10 05:49:29;;;;;;;12.15;7.07;;;;;;;11.04;59.88;100726.41;5006512;28;20050;-76
2023/05/10 05:51:58;;;;;;;11.85;7.05;;;;;;;11.19;59.73;100724.84;5003200;28;20047;-79
2023/05/10 05:54:23;;;;;;;12.40;7.20;;;;;;;11.29;59.82;100722.69;5017418;28;20208;-75
2023/05/10 05:56:49;;;;;;;11.07;7.32;;;;;;;11.42;59.53;100726.44;5015371;28;20040;-71
2023/05/10 05:59:14;;;;;;;11.20;7.35;;;;;;;11.39;58.98;100726.56;5015444;28;20041;-72
2023/05/10 06:01:40;;;;;;;10.10;6.43;;;;;;;11.50;59.09;100722.59;5016223;28;20033;-71
2023/05/10 06:04:06;;;;;;;9.50;6.28;;;;;;;11.25;59.37;100728.97;5000553;28;20610;-74
2023/05/10 06:06:32;;;;;;;8.70;6.10;;;;;;;11.48;59.27;100721.81;4997714;28;20030;-74
2023/05/10 06:08:58;;;;;;;8.30;6.13;;;;;;;11.54;58.96;100737.25;5010366;28;20044;-73
2023/05/10 06:11:23;;;;;;;8.27;5.28;;;;;;;11.15;58.90;100725.91;5020436;28;20048;-74
2023/05/10 06:13:49;;;;;;;9.30;5.90;;;;;;;11.33;58.98;100736.44;5000489;28;20049;-74
2023/05/10 06:16:15;;;;;;;9.18;6.10;;;;;;;11.45;59.47;100731.50;5021382;28;20040;-74
2023/05/10 06:18:40;;;;;;;8.38;5.32;;;;;;;11.36;59.20;100720.63;5017155;28;20140;-70
2023/05/10 06:21:06;;;;;;;9.90;5.88;;;;;;;11.45;59.19;100726.28;5019901;28;20029;-68
2023/05/10 06:23:33;;;;;;;9.13;5.70;;;;;;;10.96;59.28;100731.09;5015382;28;20223;-69
2023/05/10 06:25:58;;;;;;;7.70;5.75;;;;;;;11.13;59.29;100727.75;5021330;28;20444;-73
2023/05/10 06:28:24;;;;;;;6.57;3.97;;;;;;;11.30;59.01;100726.97;5019533;28;20484;-71
2023/05/10 06:30:50;;;;;;;6.57;4.55;;;;;;;11.29;58.94;100727.91;5018267;28;20037;-69
2023/05/10 06:33:16;;;;;;;7.32;5.35;;;;;;;11.55;58.30;100741.56;5000256;28;20041;-70
2023/05/10 06:35:42;;;;;;;5.50;4.30;;;;;;;11.74;58.47;100731.94;5017037;28;20572;-71
2023/05/10 06:38:07;;;;;;;7.25;4.72;;;;;;;11.73;57.54;100740.72;5019560;28;20044;-72
2023/05/10 06:40:33;;;;;;;7.25;4.53;;;;;;;12.08;58.12;100738.19;5016200;28;20043;-73
2023/05/10 06:43:01;;;;;;;6.28;4.35;;;;;;;12.22;56.75;100735.78;5011350;28;20568;-68
2023/05/10 06:45:27;;;;;;;5.93;4.32;;;;;;;12.19;57.13;100740.31;4998277;28;20029;-69
2023/05/10 06:47:53;;;;;;;6.40;4.18;;;;;;;12.16;56.23;100746.56;5008655;28;20049;-70
2023/05/10 06:50:19;;;;;;;5.82;3.67;;;;;;;12.38;57.34;100748.09;4990421;28;20518;-70
2023/05/10 06:52:44;;;;;;;6.18;4.10;;;;;;;12.60;56.79;100759.22;4989045;28;20099;-69
2023/05/10 06:55:10;;;;;;;6.05;4.13;;;;;;;12.28;56.13;100751.16;5021263;28;20045;-70
2023/05/10 06:57:36;;;;;;;6.18;4.63;;;;;;;12.05;56.48;100757.53;5015606;28;20081;-70
2023/05/10 07:00:03;;;;;;;4.40;3.45;;;;;;;12.25;56.23;100751.34;5036463;28;20949;-70
2023/05/10 07:02:29;;;;;;;4.60;3.70;;;;;;;12.36;56.58;100755.22;5014104;28;20656;-71
2023/05/10 07:04:55;;;;;;;5.38;3.75;;;;;;;12.10;55.76;100759.09;5016014;28;20073;-72
2023/05/10 07:07:21;;;;;;;3.60;3.17;;;;;;;12.28;55.79;100763.44;5020503;28;20032;-72
2023/05/10 07:09:46;;;;;;;4.25;3.55;;;;;;;12.27;55.56;100765.22;5016677;28;20152;-71
2023/05/10 07:12:12;;;;;;;4.75;3.33;;;;;;;11.33;57.08;100765.22;5020128;28;20465;-71
2023/05/10 07:14:40;;;;;;;5.13;3.97;;;;;;;11.67;56.18;100769.81;5016523;28;20045;-70
2023/05/10 07:17:16;;;;;;;7.38;3.60;;;;;;;11.72;56.94;100770.44;5019739;28;20116;-70
2023/05/10 07:19:41;;;;;;;3.92;3.30;;;;;;;11.70;56.63;100767.03;4997169;28;20051;-70
2023/05/10 07:22:12;;;;;;;5.30;2.85;;;;;;;11.63;56.72;100774.31;4993416;28;20111;-70
2023/05/10 07:24:37;;;;;;;4.97;3.70;;;;;;;11.61;56.24;100777.94;4995963;28;20447;-71
2023/05/10 07:27:06;;;;;;;5.53;4.10;;;;;;;11.74;55.94;100776.44;4996901;28;20415;-71
2023/05/10 07:29:33;;;;;;;4.15;3.63;;;;;;;11.76;55.96;100779.84;5003767;28;20151;-70
2023/05/10 07:32:01;;;;;;;5.10;3.65;;;;;;;11.69;56.36;100775.81;5012716;28;20101;-71
2023/05/10 07:34:29;;;;;;;4.20;3.28;;;;;;;11.68;56.61;100769.72;4992227;28;20080;-70
2023/05/10 07:36:58;;;;;;;4.63;3.75;;;;;;;11.95;56.22;100776.38;4994491;28;20141;-70
2023/05/10 07:39:26;;;;;;;4.57;3.42;;;;;;;12.05;56.06;100775.03;5006600;28;20633;-71
2023/05/10 07:41:52;;;;;;;3.97;3.53;;;;;;;11.72;56.43;100770.44;5013246;28;20041;-70
2023/05/10 07:44:20;;;;;;;5.70;4.05;;;;;;;12.11;56.58;100771.25;4995604;28;20052;-69
2023/05/10 07:46:46;;;;;;;4.53;3.25;;;;;;;12.18;56.14;100776.16;5023091;28;20036;-70
2023/05/10 07:49:14;;;;;;;5.82;4.47;;;;;;;12.51;55.90;100775.41;5026938;28;20052;-71
2023/05/10 07:51:42;;;;;;;6.95;3.33;;;;;;;12.55;54.23;100776.94;5006058;28;20522;-71
2023/05/10 07:54:07;;;;;;;5.80;3.67;;;;;;;12.50;54.79;100781.56;5018011;28;20473;-71
2023/05/10 07:56:33;;;;;;;4.93;3.28;;;;;;;12.64;54.68;100781.72;5017418;28;20036;-70
2023/05/10 07:59:00;;;;;;;4.25;3.75;;;;;;;12.82;54.24;100792.25;5014974;28;20095;-71
2023/05/10 08:01:26;;;;;;;6.03;4.00;;;;;;;12.69;54.14;100787.63;5015238;28;20572;-70
2023/05/10 08:03:53;;;;;;;6.03;4.72;;;;;;;12.74;54.60;100792.66;5024552;28;20041;-71
2023/05/10 08:06:23;;;;;;;5.28;3.97;;;;;;;12.73;53.97;100797.97;5020633;28;20137;-71
2023/05/10 08:08:53;;;;;;;5.63;3.63;;;;;;;12.67;54.68;100797.31;4993384;28;20523;-71
2023/05/10 08:11:20;;;;;;;4.90;3.80;;;;;;;12.98;54.07;100805.44;5005812;28;20033;-70
2023/05/10 08:13:54;;;;;;;7.38;3.95;;;;;;;12.59;54.68;100804.72;4995990;28;20073;-68
2023/05/10 08:16:20;;;;;;;4.07;2.97;;;;;;;12.72;53.69;100812.84;4996197;28;20544;-71
2023/05/10 08:18:47;;;;;;;9.38;3.85;;;;;;;13.02;54.38;100814.84;5000022;28;20600;-70
2023/05/10 08:21:18;;;;;;;5.18;3.22;;;;;;;12.85;54.17;100815.72;5020352;28;20044;-67
2023/05/10 08:23:43;;;;;;;6.18;3.90;;;;;;;13.03;53.49;100811.31;5011987;28;20049;-69
2023/05/10 08:26:13;;;;;;;6.32;4.35;;;;;;;13.35;53.12;100809.63;5018763;28;20083;-68
2023/05/10 08:28:41;;;;;;;5.30;3.70;;;;;;;13.62;53.13;100809.13;5004420;28;20834;-69
2023/05/10 08:31:07;;;;;;;5.60;4.05;;;;;;;13.86;51.94;100815.66;5006106;28;20065;-66
2023/05/10 08:33:32;;;;;;;6.93;3.38;;;;;;;13.60;51.20;100813.59;4993072;28;20129;-63
2023/05/10 08:36:00;;;;;;;5.70;3.15;;;;;;;13.63;51.61;100821.28;4987995;28;20590;-66
2023/05/10 08:38:26;;;;;;;6.35;3.83;;;;;;;13.85;50.73;100816.59;5002952;28;20046;-68
2023/05/10 08:40:56;;;;;;;4.07;3.38;;;;;;;13.42;52.80;100818.88;4983988;28;20757;-67
2023/05/10 08:43:26;;;;;;;3.47;2.70;;;;;;;13.23;52.48;100820.78;4993880;28;20056;-67
2023/05/10 08:45:59;;;;;;;3.85;2.78;;;;;;;13.20;53.81;100819.13;4986923;28;20346;-67
2023/05/10 08:48:28;;;;;;;5.15;3.22;;;;;;;13.07;52.99;100820.69;5002274;28;20048;-67
2023/05/10 08:51:01;;;;;;;5.40;3.15;;;;;;;13.31;52.83;100826.44;5016282;28;20068;-66
2023/05/10 08:53:30;;;;;;;3.55;2.92;;;;;;;13.65;52.31;100829.94;5031273;28;20575;-67
2023/05/10 08:55:56;;;;;;;4.20;3.28;;;;;;;13.75;53.12;100827.69;5014569;28;20111;-68
2023/05/10 08:58:22;;;;;;;4.78;3.20;;;;;;;13.86;52.71;100826.16;5005647;28;20447;-67
2023/05/10 09:00:52;;;;;;;5.22;3.08;;;;;;;13.91;52.61;100829.38;4997122;28;20036;-68
2023/05/10 09:03:23;;;;;;;3.35;2.45;;;;;;;13.52;52.56;100842.88;4990329;28;20042;-68
2023/05/10 09:05:49;;;;;;;4.03;3.25;;;;;;;13.46;53.15;100837.94;5000798;28;20063;-69
2023/05/10 09:08:16;;;;;;;3.13;2.38;;;;;;;13.25;53.62;100850.38;4988002;28;20630;-70
2023/05/10 09:10:43;;;;;;;4.28;2.95;;;;;;;13.28;52.91;100860.75;5005506;28;20035;-69
2023/05/10 09:13:13;;;;;;;3.88;2.88;;;;;;;13.19;52.02;100850.72;5017497;28;20040;-69
2023/05/10 09:15:39;;;;;;;6.63;3.45;;;;;;;13.51;52.97;100855.13;5013865;28;20288;-69
2023/05/10 09:18:14;;;;;;;5.20;2.97;;;;;;;13.87;52.28;100855.91;5015381;28;20040;-68
2023/05/10 09:20:43;;;;;;;4.45;2.85;;;;;;;14.04;51.14;100850.59;5011118;28;20043;-69
2023/05/10 09:23:08;;;;;;;3.63;2.38;;;;;;;14.23;50.68;100860.94;5016082;28;20053;-69
2023/05/10 09:25:34;;;;;;;4.60;3.22;;;;;;;14.17;51.57;100857.81;5015353;28;20859;-69
2023/05/10 09:28:00;;;;;;;4.45;3.45;;;;;;;14.27;51.28;100857.19;5009234;28;20077;-69
2023/05/10 09:30:30;;;;;;;6.13;4.13;;;;;;;14.19;51.26;100856.78;4998151;28;20536;-69
2023/05/10 09:32:57;;;;;;;6.30;4.63;;;;;;;13.83;51.66;100865.75;4994270;28;20072;-68
2023/05/10 09:35:25;;;;;;;4.43;3.42;;;;;;;13.37;52.43;100868.16;4998624;28;20169;-69
2023/05/10 09:37:54;;;;;;;4.72;2.95;;;;;;;13.65;52.67;100866.72;4998434;28;20535;-69
2023/05/10 09:40:23;;;;;;;3.15;2.35;;;;;;;13.60;52.43;100876.63;5001241;28;20857;-70
2023/05/10 09:42:56;;;;;;;4.53;2.10;;;;;;;13.63;52.48;100876.44;4994271;28;20353;-68
2023/05/10 09:45:24;;;;;;;3.65;2.60;;;;;;;13.86;52.37;100876.09;4996667;28;20514;-69
2023/05/10 09:47:51;;;;;;;4.60;2.70;;;;;;;13.83;51.26;100884.16;4998149;28;20056;-68
2023/05/10 09:50:17;;;;;;;4.03;2.13;;;;;;;13.73;52.72;100882.91;5016180;28;20464;-69
2023/05/10 09:53:00;;;;;;;5.20;2.97;;;;;;;13.75;53.13;100886.31;5014685;28;20029;-69
2023/05/10 09:55:39;;;;;;;3.03;2.20;;;;;;;14.11;52.04;100880.00;4993639;28;20086;-69
2023/05/10 09:58:09;;;;;;;3.15;2.42;;;;;;;14.58;52.11;100884.41;5017188;28;20132;-69
2023/05/10 10:00:36;;;;;;;2.40;1.40;;;;;;;14.85;50.27;100889.88;5006346;28;20076;-70
2023/05/10 10:03:03;;;;;;;1.90;1.40;;;;;;;15.08;50.20;100890.31;5015863;28;20178;-70
2023/05/10 10:05:29;;;;;;;1.88;1.23;;;;;;;14.96;47.93;100881.38;5011906;28;20064;-69
2023/05/10 10:07:57;;;;;;;1.60;0.90;;;;;;;14.96;49.79;100887.47;5012181;28;20049;-69
2023/05/10 10:10:26;;;;;;;1.98;1.05;;;;;;;15.05;49.50;100875.56;5007445;28;20029;-69
2023/05/10 10:12:55;;;;;;;2.15;0.85;;;;;;;15.17;49.56;100882.75;4993273;28;20048;-69
2023/05/10 10:15:26;;;;;;;1.50;0.65;;;;;;;15.02;48.53;100886.28;4971275;28;20044;-69
2023/05/10 10:17:56;;;;;;;1.03;0.30;;;;;;;14.58;50.21;100887.06;4974351;28;20042;-69
2023/05/10 10:20:27;;;;;;;1.30;0.50;;;;;;;14.66;50.06;100890.09;5024961;28;20040;-69
2023/05/10 10:22:57;;;;;;;0.70;0.30;;;;;;;14.73;49.51;100891.44;5010720;28;20089;-68
2023/05/10 10:25:25;;;;;;;1.15;0.40;;;;;;;14.64;49.09;100891.13;5013825;28;20295;-70
2023/05/10 10:27:51;;;;;;;0.77;0.40;;;;;;;14.03;51.67;100905.84;4998136;28;20086;-70
2023/05/10 10:30:55;;;;;;;2.30;0.50;;;;;;;13.69;51.77;100913.75;4996127;28;20036;-71
2023/05/10 10:33:33;;;;;;;2.17;0.93;;;;;;;14.10;52.22;100908.06;4975443;28;20097;-70
2023/05/10 10:36:03;;;;;;;2.10;0.77;;;;;;;13.91;51.11;100915.25;5023818;28;20070;-70
2023/05/10 10:38:49;;;;;;;3.00;0.88;;;;;;;13.68;52.81;100919.09;5015791;28;20591;-70
2023/05/10 10:41:35;;;;;;;1.30;0.98;;;;;;;13.60;52.65;100921.25;5019676;28;20132;-70
2023/05/10 10:44:26;;;;;;;1.90;1.27;;;;;;;13.20;53.81;100925.91;5016626;28;20045;-69
2023/05/10 10:47:11;;;;;;;3.08;1.33;;;;;;;12.07;55.08;100936.47;5013739;28;20055;-70
2023/05/10 10:49:45;;;;;;;2.13;0.80;;;;;;;11.57;56.87;100946.50;5031760;27;20408;-70
2023/05/10 10:52:40;;;;;;;7.00;1.65;;;;;;;11.37;56.79;100945.59;4989020;28;20044;-71
2023/05/10 10:55:08;;;;;;;2.83;1.35;;;;;;;10.96;57.84;100947.31;4988427;28;20461;-72
2023/05/10 10:57:54;;;;;;;2.47;0.82;;;;;;;11.51;57.31;100947.63;4980746;28;20040;-72
2023/05/10 11:00:47;;;;;;;1.55;0.95;;;;;;;11.39;57.25;100956.84;4998548;28;20072;-70
2023/05/10 11:03:16;;;;;;;2.03;1.00;;;;;;;11.23;57.70;100955.78;4987588;28;20097;-69
2023/05/10 11:05:47;;;;;;;4.82;1.30;;;;;;;10.96;57.97;100953.38;5001805;28;20041;-69
2023/05/10 11:08:21;;;;;;;1.63;0.60;;;;;;;11.05;58.50;100968.72;4974733;28;21328;-70
2023/05/10 11:11:07;;;;;;;3.53;1.27;;;;;;;10.97;58.30;100970.81;4997773;28;20541;-69
2023/05/10 11:13:47;;;;;;;2.35;1.00;;;;;;;10.64;58.72;100979.03;4986718;28;20045;-69
2023/05/10 11:16:19;;;;;;;2.20;0.65;;;;;;;11.05;58.32;100973.09;4984593;28;20538;-69
2023/05/10 11:18:53;;;;;;;;;;;;;;;10.80;58.83;100978.44;4990343;28;20046;-70
2023/05/10 11:21:24;;;;;;;1.70;0.50;;;;;;;11.12;58.21;100977.16;4985852;28;19917;-69
2023/05/10 11:23:57;;;;;;;1.93;0.80;;;;;;;11.16;58.11;100985.75;4986420;28;20046;-70
2023/05/10 11:26:48;;;;;;;;;;;;;;;;;;;;;
2023/05/10 11:29:27;;;;;;;1.60;0.40;;;;;;;11.51;58.00;100973.81;4984073;28;20055;-71
2023/05/10 11:31:58;;;;;;;8.65;0.52;;;;;;;11.58;57.40;100987.50;4998638;28;20081;-71
2023/05/10 11:34:33;;;;;;;2.25;0.60;;;;;;;11.65;57.66;100984.53;4984409;28;20073;-70